CheckWX is a tool to help pilots better visualize weather data.  It is not intended as a substitute for an official pre-flight weather briefing.

22:20:57 UTC

LKKB METAR
Kbely Air Base Airport
Prague, Czech Republic
Current

21 mins ago

LKKB 212200Z 24011KT 9999 OVC030 07/03 Q1024
Observed
Feb-21 @ 22:00 UTC
Wind
  • 240° at 11 KTS
Visibility
10,000+ meters
Flight Rules
MVFR
Cloud Levels
  • Overcast at 3,000' AGL
Temperature
C / 45°F
Dewpoint
C / 37°F
Humidity
76%
Altimeter
30.24" Hg
Pressure
1023.92 hPa
Previous

1 hour ago

LKKB 212100Z 24009KT 9999 -RA OVC031 07/02 Q1024
Observed
Feb-21 @ 21:00 UTC
Wind
  • 240° at 9 KTS
Visibility
10,000+ meters
Flight Rules
VFR
Conditions
Light Rain
Cloud Levels
  • Overcast at 3,100' AGL
Temperature
C / 45°F
Dewpoint
C / 36°F
Humidity
71%
Altimeter
30.24" Hg
Pressure
1023.92 hPa
Previous

2 hours ago

LKKB 212000Z 24011KT 9999 -RA BKN032 OVC039 07/02 Q1024 NOSIG
Observed
Feb-21 @ 20:00 UTC
Wind
  • 240° at 11 KTS
Visibility
10,000+ meters
Flight Rules
VFR
Conditions
Light Rain
Cloud Levels
  • Broken at 3,200' AGL
  • Overcast at 3,900' AGL
Temperature
C / 45°F
Dewpoint
C / 36°F
Humidity
71%
Altimeter
30.24" Hg
Pressure
1023.92 hPa